createdAt,value
2018-06-19T00:02:23.608Z,3.30
2018-06-19T00:04:52.803Z,3.20
2018-06-19T00:07:22.134Z,3.30
2018-06-19T00:09:52.381Z,3.23
2018-06-19T00:12:21.431Z,3.27
2018-06-19T00:14:51.470Z,3.00
2018-06-19T00:17:20.655Z,3.37
2018-06-19T00:19:52.139Z,3.20
2018-06-19T00:22:21.303Z,3.40
2018-06-19T00:24:51.438Z,2.90
2018-06-19T00:27:20.746Z,3.40
2018-06-19T00:29:49.934Z,3.27
2018-06-19T00:32:19.235Z,3.40
2018-06-19T00:34:48.352Z,3.70
2018-06-19T00:37:17.235Z,3.50
2018-06-19T00:39:45.915Z,3.73
2018-06-19T00:42:15.068Z,3.83
2018-06-19T00:44:43.873Z,3.57
2018-06-19T00:47:12.846Z,3.60
2018-06-19T00:49:41.882Z,3.80
2018-06-19T00:52:11.043Z,3.93
2018-06-19T00:54:40.269Z,3.87
2018-06-19T00:57:09.414Z,4.27
2018-06-19T00:59:39.515Z,4.47
2018-06-19T01:02:09.406Z,4.17
2018-06-19T01:04:38.411Z,4.90
2018-06-19T01:07:08.618Z,4.43
2018-06-19T01:09:38.682Z,4.80
2018-06-19T01:12:07.810Z,4.80
2018-06-19T01:14:38.968Z,4.70
2018-06-19T01:17:08.212Z,4.57
2018-06-19T01:19:37.432Z,4.70
2018-06-19T01:22:06.612Z,5.80
2018-06-19T01:24:35.808Z,5.37
2018-06-19T01:27:04.947Z,5.30
2018-06-19T01:29:33.966Z,5.10
2018-06-19T01:32:03.111Z,5.10
2018-06-19T01:34:32.665Z,5.10
2018-06-19T01:37:02.069Z,5.63
2018-06-19T01:39:31.196Z,6.10
2018-06-19T01:42:00.423Z,5.57
2018-06-19T01:44:30.521Z,5.87
2018-06-19T01:46:59.994Z,5.13
2018-06-19T01:49:31.037Z,5.80
2018-06-19T01:52:00.338Z,5.97
2018-06-19T01:54:29.397Z,6.50
2018-06-19T01:56:58.488Z,6.30
2018-06-19T01:59:27.646Z,6.63
2018-06-19T02:01:57.869Z,6.87
2018-06-19T02:04:26.883Z,7.07
2018-06-19T02:06:55.888Z,6.70
2018-06-19T02:09:25.971Z,6.60
2018-06-19T02:11:55.065Z,6.07
2018-06-19T02:14:24.157Z,6.70
2018-06-19T02:16:54.322Z,6.00
2018-06-19T02:19:24.346Z,6.60
2018-06-19T02:21:54.427Z,6.67
2018-06-19T02:24:23.639Z,6.53
2018-06-19T02:26:52.865Z,7.23
2018-06-19T02:29:22.059Z,6.67
2018-06-19T02:31:51.370Z,7.10
2018-06-19T02:34:20.450Z,7.00
2018-06-19T02:36:50.489Z,7.20
2018-06-19T02:39:19.600Z,7.30
2018-06-19T02:41:48.790Z,7.23
2018-06-19T02:44:17.826Z,7.60
2018-06-19T02:46:47.024Z,6.90
2018-06-19T02:49:17.953Z,7.23
2018-06-19T02:51:46.968Z,7.60
2018-06-19T02:54:17.226Z,7.53
2018-06-19T02:56:49.604Z,7.17
2018-06-19T02:59:18.699Z,6.97
2018-06-19T03:01:48.448Z,7.30
2018-06-19T03:04:19.762Z,7.20
2018-06-19T03:06:48.785Z,7.00
2018-06-19T03:09:18.730Z,7.37
2018-06-19T03:11:48.808Z,7.33
2018-06-19T03:14:17.828Z,7.83
2018-06-19T03:16:48.759Z,6.97
2018-06-19T03:19:18.043Z,7.70
2018-06-19T03:21:47.219Z,7.53
2018-06-19T03:24:16.490Z,7.33
2018-06-19T03:26:45.762Z,7.27
2018-06-19T03:29:16.219Z,7.23
2018-06-19T03:31:46.126Z,8.20
2018-06-19T03:34:15.295Z,7.33
2018-06-19T03:36:44.326Z,7.30
2018-06-19T03:39:13.360Z,7.93
2018-06-19T03:41:42.666Z,7.53
2018-06-19T03:44:13.087Z,7.50
2018-06-19T03:46:49.103Z,7.13
2018-06-19T03:49:18.273Z,7.30
2018-06-19T03:51:47.356Z,7.67
2018-06-19T03:54:16.449Z,8.00
2018-06-19T03:56:45.480Z,7.87
2018-06-19T03:59:16.089Z,7.10
2018-06-19T04:01:45.119Z,7.13
2018-06-19T04:04:14.226Z,7.37
2018-06-19T04:06:44.966Z,7.30
2018-06-19T04:09:15.052Z,7.37
2018-06-19T04:11:44.234Z,7.10
2018-06-19T04:14:13.393Z,7.23
2018-06-19T04:16:43.546Z,6.73
2018-06-19T04:19:12.813Z,7.10
2018-06-19T04:21:41.995Z,6.37
2018-06-19T04:24:11.248Z,6.97
2018-06-19T04:26:40.327Z,6.57
2018-06-19T04:29:09.588Z,6.10
2018-06-19T04:31:38.893Z,6.83
2018-06-19T04:34:14.898Z,6.80
2018-06-19T04:36:45.862Z,7.03
2018-06-19T04:39:16.246Z,6.60
2018-06-19T04:41:45.724Z,7.03
2018-06-19T04:44:16.758Z,6.80
2018-06-19T04:46:45.951Z,7.13
2018-06-19T04:49:16.908Z,7.07
2018-06-19T04:51:46.325Z,6.83
2018-06-19T04:54:15.399Z,6.30
2018-06-19T04:56:45.522Z,6.67
2018-06-19T04:59:14.927Z,6.57
2018-06-19T05:01:44.190Z,6.50
2018-06-19T05:04:13.344Z,6.13
2018-06-19T05:06:42.632Z,5.90
2018-06-19T05:09:13.987Z,6.77
2018-06-19T05:11:44.922Z,6.97
2018-06-19T05:14:14.738Z,6.80
2018-06-19T05:16:43.442Z,6.23
2018-06-19T05:19:13.588Z,6.80
2018-06-19T05:21:42.716Z,6.70
2018-06-19T05:24:12.505Z,6.80
2018-06-19T05:26:41.597Z,7.00
2018-06-19T05:29:11.773Z,6.23
2018-06-19T05:31:40.929Z,6.83
2018-06-19T05:34:11.034Z,7.17
2018-06-19T05:36:40.209Z,6.90
2018-06-19T05:39:11.937Z,6.00
2018-06-19T05:41:41.124Z,6.50
2018-06-19T05:44:11.244Z,5.60
2018-06-19T05:46:40.544Z,6.30
2018-06-19T05:49:10.273Z,5.80
2018-06-19T05:51:40.679Z,5.60
2018-06-19T05:54:11.728Z,6.03
2018-06-19T05:56:41.619Z,5.63
2018-06-19T05:59:11.689Z,6.80
2018-06-19T06:01:41.112Z,5.80
2018-06-19T06:04:11.801Z,5.43
2018-06-19T06:06:41.772Z,5.77
2018-06-19T06:09:11.642Z,5.57
2018-06-19T06:11:41.876Z,6.10
2018-06-19T06:14:12.053Z,5.93
2018-06-19T06:16:42.198Z,6.03
2018-06-19T06:19:11.180Z,6.23
2018-06-19T06:21:41.745Z,6.00
2018-06-19T06:24:10.999Z,5.90
2018-06-19T06:26:42.077Z,5.80
2018-06-19T06:29:11.737Z,5.73
2018-06-19T06:31:40.838Z,5.57
2018-06-19T06:34:11.640Z,6.00
2018-06-19T06:36:41.057Z,5.10
2018-06-19T06:39:10.281Z,5.80
2018-06-19T06:41:39.499Z,5.97
2018-06-19T06:44:09.208Z,5.43
2018-06-19T06:46:38.386Z,5.67
2018-06-19T06:49:09.557Z,5.43
2018-06-19T06:51:38.936Z,6.27
2018-06-19T06:54:08.100Z,5.13
2018-06-19T06:56:37.293Z,6.07
2018-06-19T06:59:06.565Z,5.10
2018-06-19T07:01:35.848Z,5.73
2018-06-19T07:04:06.033Z,5.60
2018-06-19T07:06:36.277Z,5.43
2018-06-19T07:09:08.872Z,5.10
2018-06-19T07:11:37.778Z,5.90
2018-06-19T07:14:06.829Z,5.00
2018-06-19T07:16:37.698Z,5.27
2018-06-19T07:19:07.923Z,5.40
2018-06-19T07:21:39.630Z,4.93
2018-06-19T07:24:08.864Z,5.73
2018-06-19T07:26:38.044Z,5.23
2018-06-19T07:29:08.040Z,5.40
2018-06-19T07:31:37.179Z,5.20
2018-06-19T07:34:07.234Z,4.73
2018-06-19T07:36:36.326Z,4.83
2018-06-19T07:39:08.040Z,4.83
2018-06-19T07:41:37.351Z,5.23
2018-06-19T07:44:06.508Z,5.60
2018-06-19T07:46:36.532Z,5.17
2018-06-19T07:49:05.714Z,5.17
2018-06-19T07:51:34.752Z,5.90
2018-06-19T07:54:04.032Z,5.47
2018-06-19T07:56:33.224Z,5.90
2018-06-19T07:59:02.536Z,5.57
2018-06-19T08:01:32.258Z,5.40
2018-06-19T08:04:01.356Z,5.60
2018-06-19T08:06:30.528Z,6.00
2018-06-19T08:08:59.786Z,5.43
2018-06-19T08:11:29.017Z,5.80
2018-06-19T08:13:58.128Z,6.00
2018-06-19T08:16:27.236Z,6.27
2018-06-19T08:18:57.803Z,6.80
2018-06-19T08:21:26.834Z,6.93
2018-06-19T08:23:57.436Z,6.33
2018-06-19T08:26:26.696Z,6.93
2018-06-19T08:28:55.897Z,7.20
2018-06-19T08:31:25.263Z,6.40
2018-06-19T08:33:55.412Z,6.63
2018-06-19T08:36:25.485Z,6.67
2018-06-19T08:38:54.617Z,6.97
2018-06-19T08:41:25.578Z,7.00
2018-06-19T08:43:54.651Z,7.23
2018-06-19T08:46:25.794Z,7.10
2018-06-19T08:48:54.896Z,8.17
2018-06-19T08:51:24.055Z,7.40
2018-06-19T08:53:53.312Z,7.27
2018-06-19T08:56:22.472Z,7.00
2018-06-19T08:58:51.788Z,7.23
2018-06-19T09:01:21.782Z,6.73
2018-06-19T09:03:51.586Z,6.87
2018-06-19T09:06:20.810Z,6.70
2018-06-19T09:08:50.141Z,7.50
2018-06-19T09:11:20.379Z,7.10
2018-06-19T09:13:49.570Z,6.90
2018-06-19T09:16:19.809Z,6.60
2018-06-19T09:18:49.118Z,6.53
2018-06-19T09:21:18.269Z,7.07
2018-06-19T09:23:50.063Z,6.13
2018-06-19T09:26:20.248Z,6.30
2018-06-19T09:28:51.411Z,6.10
2018-06-19T09:31:20.911Z,5.70
2018-06-19T09:33:51.054Z,5.77
2018-06-19T09:36:21.179Z,5.57
2018-06-19T09:38:50.420Z,5.90
2018-06-19T09:41:19.575Z,4.77
2018-06-19T09:43:49.619Z,5.90
2018-06-19T09:46:19.048Z,4.97
2018-06-19T09:48:49.113Z,4.90
2018-06-19T09:51:18.516Z,5.60
2018-06-19T09:53:47.942Z,5.63
2018-06-19T09:56:17.351Z,6.90
2018-06-19T09:58:46.628Z,5.10
2018-06-19T10:01:16.781Z,4.73
2018-06-19T10:03:45.939Z,5.10
2018-06-19T10:06:15.083Z,5.47
2018-06-19T10:08:44.289Z,5.60
2018-06-19T10:11:13.662Z,5.10
2018-06-19T10:13:42.764Z,5.03
2018-06-19T10:16:12.011Z,5.10
2018-06-19T10:18:41.166Z,4.40
2018-06-19T10:21:12.572Z,4.57
2018-06-19T10:23:42.656Z,3.93
2018-06-19T10:26:11.849Z,4.00
2018-06-19T10:28:40.996Z,4.00
2018-06-19T10:31:10.240Z,3.43
2018-06-19T10:33:39.298Z,3.67
2018-06-19T10:36:08.540Z,3.57
2018-06-19T10:38:37.608Z,4.00
2018-06-19T10:41:06.791Z,4.57
2018-06-19T10:43:35.999Z,5.17
2018-06-19T10:46:06.167Z,5.87
2018-06-19T10:48:35.445Z,5.60
2018-06-19T10:51:04.534Z,4.70
2018-06-19T10:53:33.847Z,4.70
2018-06-19T10:56:03.028Z,4.30
2018-06-19T10:58:32.328Z,4.43
2018-06-19T11:01:02.464Z,4.33
2018-06-19T11:03:35.367Z,4.07
2018-06-19T11:06:05.014Z,3.93
2018-06-19T11:08:34.056Z,4.10
2018-06-19T11:11:03.267Z,4.50
2018-06-19T11:13:33.261Z,4.80
2018-06-19T11:16:02.502Z,4.90
2018-06-19T11:18:32.550Z,5.37
2018-06-19T11:21:01.736Z,4.97
2018-06-19T11:23:31.748Z,6.17
2018-06-19T11:26:02.526Z,5.17
2018-06-19T11:28:31.700Z,4.87
2018-06-19T11:31:02.451Z,4.90
2018-06-19T11:33:31.640Z,5.30
2018-06-19T11:36:02.705Z,5.00
2018-06-19T11:38:32.840Z,5.47
2018-06-19T11:41:03.171Z,5.70
2018-06-19T11:43:32.429Z,4.63
2018-06-19T11:46:01.483Z,5.20
2018-06-19T11:48:31.469Z,4.20
2018-06-19T11:51:00.676Z,5.10
2018-06-19T11:53:30.416Z,4.70
2018-06-19T11:55:59.423Z,4.60
2018-06-19T11:58:30.496Z,3.90
2018-06-19T12:00:59.845Z,4.13
2018-06-19T12:03:29.051Z,4.23
2018-06-19T12:05:59.231Z,4.33
2018-06-19T12:08:29.382Z,4.90
2018-06-19T12:10:58.683Z,5.27
2018-06-19T12:13:27.990Z,5.40
2018-06-19T12:15:57.145Z,4.80
2018-06-19T12:18:28.143Z,5.17
2018-06-19T12:20:57.842Z,5.00
2018-06-19T12:23:27.026Z,4.60
2018-06-19T12:25:56.203Z,4.90
2018-06-19T12:28:26.874Z,4.00
2018-06-19T12:30:56.155Z,5.33
2018-06-19T12:33:25.330Z,4.90
2018-06-19T12:35:54.652Z,4.93
2018-06-19T12:38:23.841Z,3.63
2018-06-19T12:40:53.078Z,3.90
2018-06-19T12:43:23.473Z,4.30
2018-06-19T12:45:52.701Z,3.70
2018-06-19T12:48:22.712Z,4.40
2018-06-19T12:52:02.656Z,4.07
2018-06-19T12:55:41.668Z,3.90
2018-06-19T12:58:11.647Z,3.80
2018-06-19T13:00:42.743Z,3.77
2018-06-19T13:03:23.319Z,3.63
2018-06-19T13:06:03.712Z,3.70
2018-06-19T13:08:33.068Z,3.97
2018-06-19T13:11:03.632Z,4.90
2018-06-19T13:13:44.956Z,4.73
2018-06-19T13:16:25.152Z,4.17
2018-06-19T13:19:06.629Z,4.00
2018-06-19T13:21:35.800Z,4.10
2018-06-19T13:24:06.539Z,4.27
2018-06-19T13:26:36.576Z,4.53
2018-06-19T13:29:44.495Z,4.33
2018-06-19T13:32:13.577Z,4.27
2018-06-19T13:34:42.985Z,4.13
2018-06-19T13:37:13.238Z,4.30
2018-06-19T13:39:42.892Z,4.47
2018-06-19T13:42:23.479Z,4.33
2018-06-19T13:44:58.746Z,4.00
2018-06-19T13:47:28.794Z,4.20
2018-06-19T13:49:57.987Z,4.13
2018-06-19T13:52:27.372Z,3.80
2018-06-19T13:57:31.745Z,4.33
2018-06-19T14:00:03.706Z,4.37
2018-06-19T14:02:32.800Z,4.40
2018-06-19T14:05:03.705Z,3.83
2018-06-19T14:07:38.276Z,4.10
2018-06-19T14:10:20.928Z,5.00
2018-06-19T14:13:04.997Z,4.30
2018-06-19T14:15:39.977Z,4.60
2018-06-19T14:18:09.397Z,4.70
2018-06-19T14:20:39.221Z,4.50
2018-06-19T14:23:09.607Z,5.23
2018-06-19T14:25:40.701Z,4.67
2018-06-19T14:28:10.607Z,4.53
2018-06-19T14:30:39.925Z,4.37
2018-06-19T14:33:09.021Z,4.77
2018-06-19T14:35:38.381Z,3.97
2018-06-19T14:38:07.493Z,4.50
2018-06-19T14:40:36.734Z,3.43
2018-06-19T14:43:06.143Z,3.40
2018-06-19T14:45:36.820Z,3.20
2018-06-19T14:48:05.905Z,2.80
2018-06-19T14:50:35.943Z,3.43
2018-06-19T14:53:05.211Z,3.60
2018-06-19T14:55:34.425Z,3.40
2018-06-19T14:58:05.627Z,3.33
2018-06-19T15:00:35.802Z,3.40
2018-06-19T15:03:04.942Z,3.40
2018-06-19T15:05:35.396Z,3.37
2018-06-19T15:08:05.432Z,3.33
2018-06-19T15:10:35.807Z,3.47
2018-06-19T15:13:04.900Z,3.80
2018-06-19T15:15:34.244Z,3.80
2018-06-19T15:18:03.369Z,3.87
2018-06-19T15:20:32.556Z,3.50
2018-06-19T15:23:02.654Z,3.47
2018-06-19T15:25:31.812Z,3.57
2018-06-19T15:28:01.897Z,3.57
2018-06-19T15:30:31.066Z,3.53
2018-06-19T15:33:00.261Z,3.60
2018-06-19T15:35:30.425Z,3.70
2018-06-19T15:37:59.612Z,3.87
2018-06-19T15:40:31.425Z,4.17
2018-06-19T15:43:01.915Z,4.30
2018-06-19T15:45:31.357Z,4.20
2018-06-19T15:48:01.507Z,4.73
2018-06-19T15:50:30.831Z,4.87
2018-06-19T15:53:00.914Z,4.47
2018-06-19T15:55:30.644Z,4.60
2018-06-19T15:57:59.697Z,4.13
2018-06-19T16:00:32.754Z,4.27
2018-06-19T16:03:01.920Z,4.23
2018-06-19T16:05:31.869Z,4.40
2018-06-19T16:08:06.354Z,4.30
2018-06-19T16:10:35.552Z,3.93
2018-06-19T16:13:04.873Z,4.07
2018-06-19T16:15:34.853Z,4.13
2018-06-19T16:18:04.252Z,4.00
2018-06-19T16:20:33.459Z,3.90
2018-06-19T16:23:03.647Z,4.00
2018-06-19T16:25:32.887Z,3.90
2018-06-19T16:28:02.067Z,3.50
2018-06-19T16:30:31.140Z,3.63
2018-06-19T16:33:00.575Z,3.50
2018-06-19T16:35:29.710Z,3.47
2018-06-19T16:38:00.085Z,3.67
2018-06-19T16:40:29.347Z,3.93
2018-06-19T16:43:00.311Z,3.70
2018-06-19T16:45:29.413Z,3.90
2018-06-19T16:47:58.681Z,3.90
2018-06-19T16:50:29.004Z,3.50
2018-06-19T16:52:58.096Z,3.93
2018-06-19T16:55:27.392Z,3.90
2018-06-19T16:57:56.566Z,3.80
2018-06-19T17:00:26.515Z,3.50
2018-06-19T17:02:56.786Z,3.67
2018-06-19T17:05:27.082Z,3.13
2018-06-19T17:07:56.346Z,3.30
2018-06-19T17:10:26.656Z,3.20
2018-06-19T17:12:56.668Z,3.60
2018-06-19T17:15:26.144Z,2.97
2018-06-19T17:17:57.060Z,3.43
2018-06-19T17:20:28.015Z,3.20
2018-06-19T17:22:59.442Z,3.07
2018-06-19T17:25:28.766Z,3.10
2018-06-19T17:27:57.969Z,2.60
2018-06-19T17:30:27.265Z,2.70
2018-06-19T17:32:56.679Z,2.80
2018-06-19T17:35:26.087Z,2.40
2018-06-19T17:37:56.454Z,2.60
2018-06-19T17:40:27.750Z,2.70
2018-06-19T17:42:57.983Z,3.80
2018-06-19T17:45:27.165Z,2.73
2018-06-19T17:47:56.259Z,2.90
2018-06-19T17:50:25.444Z,2.00
2018-06-19T17:52:56.311Z,2.40
2018-06-19T17:55:27.769Z,2.23
2018-06-19T17:57:57.086Z,2.20
2018-06-19T18:00:27.347Z,2.23
2018-06-19T18:02:56.528Z,2.03
2018-06-19T18:05:26.044Z,2.20
2018-06-19T18:07:57.126Z,1.87
2018-06-19T18:10:26.456Z,2.07
2018-06-19T18:12:56.570Z,2.23
2018-06-19T18:15:26.613Z,2.00
2018-06-19T18:17:57.739Z,2.00
2018-06-19T18:20:26.886Z,2.10
2018-06-19T18:22:58.099Z,1.90
2018-06-19T18:25:27.483Z,2.20
2018-06-19T18:27:57.436Z,2.07
2018-06-19T18:30:28.178Z,1.90
2018-06-19T18:32:57.293Z,1.90
2018-06-19T18:35:26.406Z,1.90
2018-06-19T18:37:55.819Z,1.90
2018-06-19T18:40:25.924Z,1.97
2018-06-19T18:42:55.167Z,2.00
2018-06-19T18:45:25.259Z,2.00
2018-06-19T18:47:53.980Z,2.10
2018-06-19T18:50:24.077Z,2.00
2018-06-19T18:52:53.995Z,1.93
2018-06-19T18:55:23.851Z,1.83
2018-06-19T18:57:53.271Z,1.70
2018-06-19T19:00:22.592Z,1.60
2018-06-19T19:02:53.657Z,1.80
2018-06-19T19:05:24.053Z,1.77
2018-06-19T19:07:54.367Z,1.70
2018-06-19T19:10:30.660Z,2.10
2018-06-19T19:13:00.160Z,1.80
2018-06-19T19:15:34.703Z,2.30
2018-06-19T19:18:10.105Z,1.80
2018-06-19T19:20:39.411Z,2.17
2018-06-19T19:23:10.531Z,2.00
2018-06-19T19:25:41.097Z,2.17
2018-06-19T19:28:15.555Z,2.50
2018-06-19T19:30:45.509Z,2.60
2018-06-19T19:33:15.201Z,2.87
2018-06-19T19:35:49.816Z,2.40
2018-06-19T19:38:25.311Z,2.70
2018-06-19T19:40:55.651Z,3.07
2018-06-19T19:43:25.007Z,3.10
2018-06-19T19:45:56.410Z,2.70
2018-06-19T19:48:30.905Z,2.90
2018-06-19T19:50:59.994Z,3.10
2018-06-19T19:53:29.143Z,3.30
2018-06-19T19:56:04.845Z,2.90
2018-06-19T19:58:39.346Z,2.80
2018-06-19T20:01:08.668Z,3.10
2018-06-19T20:03:37.875Z,3.10
2018-06-19T20:06:09.008Z,2.70
2018-06-19T20:08:40.215Z,2.70
2018-06-19T20:11:09.552Z,2.70
2018-06-19T20:13:38.780Z,3.20
2018-06-19T20:16:09.249Z,3.10
2018-06-19T20:18:38.444Z,3.10
2018-06-19T20:21:07.687Z,3.30
2018-06-19T20:23:36.874Z,3.00
2018-06-19T20:26:06.086Z,3.23
2018-06-19T20:28:35.429Z,3.20
2018-06-19T20:31:05.397Z,3.00
2018-06-19T20:33:35.312Z,3.07
2018-06-19T20:36:04.490Z,2.87
2018-06-19T20:38:33.917Z,3.30
2018-06-19T20:41:04.208Z,3.80
2018-06-19T20:43:33.316Z,3.50
2018-06-19T20:46:02.479Z,3.43
2018-06-19T20:48:33.297Z,3.60
2018-06-19T20:51:03.539Z,3.03
2018-06-19T20:53:32.835Z,3.20
2018-06-19T20:56:03.035Z,3.43
2018-06-19T20:58:32.169Z,2.90
2018-06-19T21:01:01.511Z,3.80
2018-06-19T21:03:30.544Z,3.13
2018-06-19T21:05:59.891Z,3.40
2018-06-19T21:08:35.982Z,3.10
2018-06-19T21:11:05.882Z,3.17
2018-06-19T21:13:35.026Z,3.37
2018-06-19T21:16:04.260Z,3.10
2018-06-19T21:18:34.277Z,3.70
2018-06-19T21:21:06.731Z,3.17
2018-06-19T21:23:35.960Z,3.87
2018-06-19T21:26:05.311Z,3.70
2018-06-19T21:28:34.638Z,3.50
2018-06-19T21:31:03.904Z,3.50
2018-06-19T21:33:34.168Z,3.43
2018-06-19T21:36:03.444Z,3.40
2018-06-19T21:38:32.667Z,3.23
2018-06-19T21:41:02.453Z,3.07
2018-06-19T21:43:31.821Z,3.10
2018-06-19T21:46:01.830Z,3.30
2018-06-19T21:48:32.020Z,3.67
2018-06-19T21:51:02.207Z,3.30
2018-06-19T21:53:32.320Z,3.37
2018-06-19T21:56:03.048Z,3.87
2018-06-19T21:58:32.179Z,3.20
2018-06-19T22:01:02.332Z,3.80
2018-06-19T22:03:32.567Z,3.67
2018-06-19T22:06:01.783Z,3.40
2018-06-19T22:08:36.251Z,3.10
2018-06-19T22:11:06.554Z,3.43
2018-06-19T22:13:35.774Z,3.40
2018-06-19T22:16:04.848Z,3.13
2018-06-19T22:18:33.971Z,3.07
2018-06-19T22:21:03.591Z,3.10
2018-06-19T22:23:32.765Z,3.20
2018-06-19T22:26:01.879Z,3.30
2018-06-19T22:28:31.033Z,3.20
2018-06-19T22:31:00.344Z,3.37
2018-06-19T22:33:30.084Z,3.10
2018-06-19T22:36:00.192Z,2.90
2018-06-19T22:38:30.538Z,3.23
2018-06-19T22:41:00.822Z,3.10
2018-06-19T22:43:30.272Z,3.30
2018-06-19T22:45:59.506Z,2.90
2018-06-19T22:48:28.560Z,3.10
2018-06-19T22:50:57.657Z,3.17
2018-06-19T22:53:26.816Z,3.30
2018-06-19T22:55:56.062Z,3.27
2018-06-19T22:58:26.866Z,3.33
2018-06-19T23:00:56.915Z,3.17
2018-06-19T23:03:26.923Z,3.00
2018-06-19T23:05:57.043Z,3.40
2018-06-19T23:08:26.354Z,3.20
2018-06-19T23:10:55.081Z,3.40
2018-06-19T23:13:24.244Z,3.30
2018-06-19T23:15:54.307Z,3.10
2018-06-19T23:18:23.487Z,3.30
2018-06-19T23:20:54.564Z,3.00
2018-06-19T23:23:23.675Z,3.03
2018-06-19T23:25:52.739Z,3.20
2018-06-19T23:28:22.762Z,3.17
2018-06-19T23:30:52.485Z,3.37
2018-06-19T23:33:22.495Z,3.23
2018-06-19T23:35:51.686Z,3.03
2018-06-19T23:38:20.733Z,3.27
2018-06-19T23:40:49.880Z,3.20
2018-06-19T23:43:19.091Z,3.10
2018-06-19T23:45:49.359Z,3.40
2018-06-19T23:48:20.512Z,2.63
2018-06-19T23:50:50.577Z,3.50
2018-06-19T23:53:20.759Z,3.00
2018-06-19T23:55:50.011Z,3.33
2018-06-19T23:58:19.952Z,3.13
